This is the latest recevied weather packets stored in our database for station/object YN1GRE-3. If no packets are shown the sender has not sent any weather packets the latest 10 day(s).
| Time | Temp. | Humidity | Pressure | Rain* | Wind** | Luminosity | Snow |
|---|---|---|---|---|---|---|---|
| 1777694153 | 22.22° C | 86% | 1011 hPa | 0 mm | - | - | - |
| 1777687719 | 23.89° C | 84% | 1010 hPa | 0 mm | - | - | - |
| 1777686819 | 24.44° C | 84% | 1010 hPa | 0 mm | - | - | - |
| 1777673954 | 26.67° C | 79% | 1007 hPa | 0 mm | - | - | - |
| 1777668290 | 28.89° C | 79% | 1008 hPa | 0 mm | - | - | - |
| 1777652588 | 27.22° C | 84% | 1009 hPa | 0 mm | - | - | - |
| 1777648855 | 28.89° C | 84% | 1010 hPa | 0 mm | - | - | - |
| 1777643320 | 27.78° C | 79% | 1011 hPa | 0 mm | - | - | - |
| 1777641519 | 25° C | 87% | 1011 hPa | 0 mm | - | - | - |
| 1777637787 | 24.44° C | 89% | 1010 hPa | 0 mm | - | - | - |
| 1777635084 | 24.44° C | 89% | 1010 hPa | 0 mm | - | - | - |
| 1777629682 | 22.22° C | 90% | 1009 hPa | 0 mm | - | - | - |
| 1777624148 | 22.22° C | 90% | 1009 hPa | 0 mm | - | - | - |
| 1777618615 | 22.22° C | 88% | 1010 hPa | 0 mm | - | - | - |
| 1777603558 | 21.67° C | 82% | 1011 hPa | 0 mm | - | - | - |
| 1777589658 | 26.67° C | 78% | 1008 hPa | 0 mm | - | - | - |
| 1777585155 | 26.11° C | 79% | 1008 hPa | 0 mm | - | - | - |
| 1777584255 | 26.67° C | 79% | 1008 hPa | 0 mm | - | - | - |
| 1777579751 | 28.89° C | 79% | 1009 hPa | 0 mm | - | - | - |
| 1777577950 | 30° C | 79% | 1009 hPa | 0 mm | - | - | - |
* Rain latest hour (hover to see other rain measurements)
** Current wind speed in m/s (hover to see current wind gust speed)